sensor_id;sensor_type;location;lat;lon;timestamp;pressure;altitude;pressure_sealevel;temperature;humidity
39363;BME280;25088;43.238;23.110;2023-02-19T00:02:23;96510.94;;;15.68;37.43
39363;BME280;25088;43.238;23.110;2023-02-19T00:04:48;96518.66;;;15.71;37.29
39363;BME280;25088;43.238;23.110;2023-02-19T00:07:14;96519.78;;;15.60;37.11
39363;BME280;25088;43.238;23.110;2023-02-19T00:09:39;96512.91;;;15.63;36.99
39363;BME280;25088;43.238;23.110;2023-02-19T00:12:05;96518.38;;;15.68;36.53
39363;BME280;25088;43.238;23.110;2023-02-19T00:14:30;96516.16;;;15.70;37.39
39363;BME280;25088;43.238;23.110;2023-02-19T00:16:56;96548.19;;;15.50;37.31
39363;BME280;25088;43.238;23.110;2023-02-19T00:19:21;96523.75;;;15.49;36.49
39363;BME280;25088;43.238;23.110;2023-02-19T00:21:49;96537.75;;;15.52;37.01
39363;BME280;25088;43.238;23.110;2023-02-19T00:24:14;96545.91;;;15.68;36.45
39363;BME280;25088;43.238;23.110;2023-02-19T00:26:41;96540.41;;;15.63;36.94
39363;BME280;25088;43.238;23.110;2023-02-19T00:29:11;96559.44;;;15.59;37.14
39363;BME280;25088;43.238;23.110;2023-02-19T00:31:37;96561.63;;;15.62;36.83
39363;BME280;25088;43.238;23.110;2023-02-19T00:34:04;96564.56;;;15.37;37.19
39363;BME280;25088;43.238;23.110;2023-02-19T00:36:31;96582.44;;;15.34;37.57
39363;BME280;25088;43.238;23.110;2023-02-19T00:38:57;96590.31;;;15.07;37.84
39363;BME280;25088;43.238;23.110;2023-02-19T00:41:23;96584.88;;;14.86;38.32
39363;BME280;25088;43.238;23.110;2023-02-19T00:43:59;96596.47;;;14.83;38.91
39363;BME280;25088;43.238;23.110;2023-02-19T00:46:27;96601.34;;;14.91;38.48
39363;BME280;25088;43.238;23.110;2023-02-19T00:48:54;96609.09;;;14.84;38.63
39363;BME280;25088;43.238;23.110;2023-02-19T00:51:23;96616.25;;;14.80;37.30
39363;BME280;25088;43.238;23.110;2023-02-19T00:53:49;96616.81;;;14.82;37.91
39363;BME280;25088;43.238;23.110;2023-02-19T00:56:15;96604.50;;;15.24;36.04
39363;BME280;25088;43.238;23.110;2023-02-19T00:58:41;96614.00;;;15.47;36.15
39363;BME280;25088;43.238;23.110;2023-02-19T01:01:07;96613.97;;;15.52;35.74
39363;BME280;25088;43.238;23.110;2023-02-19T01:03:33;96604.28;;;15.65;35.71
39363;BME280;25088;43.238;23.110;2023-02-19T01:05:59;96608.03;;;15.79;35.58
39363;BME280;25088;43.238;23.110;2023-02-19T01:08:25;96605.22;;;15.84;35.22
39363;BME280;25088;43.238;23.110;2023-02-19T01:10:51;96600.06;;;15.77;35.58
39363;BME280;25088;43.238;23.110;2023-02-19T01:13:17;96611.34;;;15.76;35.85
39363;BME280;25088;43.238;23.110;2023-02-19T01:15:43;96601.75;;;15.73;35.81
39363;BME280;25088;43.238;23.110;2023-02-19T01:18:09;96602.38;;;15.55;36.86
39363;BME280;25088;43.238;23.110;2023-02-19T01:20:37;96603.84;;;15.42;36.74
39363;BME280;25088;43.238;23.110;2023-02-19T01:23:03;96593.16;;;15.36;36.51
39363;BME280;25088;43.238;23.110;2023-02-19T01:25:29;96597.66;;;15.16;37.17
39363;BME280;25088;43.238;23.110;2023-02-19T01:27:55;96597.75;;;14.96;38.21
39363;BME280;25088;43.238;23.110;2023-02-19T01:30:20;96597.28;;;14.79;37.65
39363;BME280;25088;43.238;23.110;2023-02-19T01:32:45;96586.00;;;14.80;37.82
39363;BME280;25088;43.238;23.110;2023-02-19T01:35:11;96580.56;;;14.70;38.22
39363;BME280;25088;43.238;23.110;2023-02-19T01:37:36;96581.97;;;14.62;38.61
39363;BME280;25088;43.238;23.110;2023-02-19T01:40:02;96583.06;;;14.56;38.84
39363;BME280;25088;43.238;23.110;2023-02-19T01:42:28;96582.88;;;14.27;38.41
39363;BME280;25088;43.238;23.110;2023-02-19T01:47:19;96583.91;;;14.36;38.41
39363;BME280;25088;43.238;23.110;2023-02-19T01:49:51;96587.22;;;14.43;39.01
39363;BME280;25088;43.238;23.110;2023-02-19T01:52:25;96579.50;;;14.45;38.09
39363;BME280;25088;43.238;23.110;2023-02-19T01:54:53;96594.09;;;14.51;38.85
39363;BME280;25088;43.238;23.110;2023-02-19T01:57:24;96597.63;;;14.46;38.09
39363;BME280;25088;43.238;23.110;2023-02-19T01:59:52;96602.31;;;14.46;39.26
39363;BME280;25088;43.238;23.110;2023-02-19T02:02:20;96599.84;;;14.44;38.01
39363;BME280;25088;43.238;23.110;2023-02-19T02:04:46;96610.56;;;14.36;38.97
39363;BME280;25088;43.238;23.110;2023-02-19T02:07:13;96607.03;;;14.20;39.73
39363;BME280;25088;43.238;23.110;2023-02-19T02:09:57;96610.31;;;14.12;39.24
39363;BME280;25088;43.238;23.110;2023-02-19T02:12:40;96614.16;;;14.16;38.90
39363;BME280;25088;43.238;23.110;2023-02-19T02:15:06;96601.53;;;14.25;38.65
39363;BME280;25088;43.238;23.110;2023-02-19T02:17:42;96611.13;;;14.43;38.44
39363;BME280;25088;43.238;23.110;2023-02-19T02:20:32;96614.72;;;14.48;38.79
39363;BME280;25088;43.238;23.110;2023-02-19T02:30:50;96621.31;;;13.91;40.18
39363;BME280;25088;43.238;23.110;2023-02-19T02:33:40;96636.69;;;13.77;40.78
39363;BME280;25088;43.238;23.110;2023-02-19T02:36:22;96628.72;;;13.81;40.25
39363;BME280;25088;43.238;23.110;2023-02-19T02:38:49;96633.69;;;13.94;39.61
39363;BME280;25088;43.238;23.110;2023-02-19T02:41:17;96632.28;;;13.96;39.65
39363;BME280;25088;43.238;23.110;2023-02-19T02:43:42;96629.53;;;14.12;38.95
39363;BME280;25088;43.238;23.110;2023-02-19T02:46:17;96630.66;;;14.16;39.65
39363;BME280;25088;43.238;23.110;2023-02-19T02:48:48;96635.88;;;14.17;39.85
39363;BME280;25088;43.238;23.110;2023-02-19T02:51:31;96633.38;;;14.16;39.57
39363;BME280;25088;43.238;23.110;2023-02-19T02:54:16;96646.03;;;14.27;39.57
39363;BME280;25088;43.238;23.110;2023-02-19T02:57:04;96648.50;;;14.23;39.76
39363;BME280;25088;43.238;23.110;2023-02-19T02:59:33;96651.50;;;14.17;39.37
39363;BME280;25088;43.238;23.110;2023-02-19T03:02:16;96663.34;;;14.17;40.16
39363;BME280;25088;43.238;23.110;2023-02-19T03:05:01;96659.22;;;14.10;40.08
39363;BME280;25088;43.238;23.110;2023-02-19T03:07:57;96667.44;;;14.10;40.10
39363;BME280;25088;43.238;23.110;2023-02-19T03:10:36;96667.44;;;14.05;39.81
39363;BME280;25088;43.238;23.110;2023-02-19T03:13:05;96656.19;;;13.96;40.30
39363;BME280;25088;43.238;23.110;2023-02-19T03:15:54;96672.94;;;13.94;40.38
39363;BME280;25088;43.238;23.110;2023-02-19T03:18:41;96668.78;;;13.92;40.24
39363;BME280;25088;43.238;23.110;2023-02-19T03:21:27;96672.66;;;13.96;40.23
39363;BME280;25088;43.238;23.110;2023-02-19T03:23:55;96672.13;;;14.04;39.55
39363;BME280;25088;43.238;23.110;2023-02-19T03:26:40;96677.88;;;14.08;40.11
39363;BME280;25088;43.238;23.110;2023-02-19T03:29:09;96682.28;;;13.99;40.25
39363;BME280;25088;43.238;23.110;2023-02-19T03:32:00;96675.97;;;13.88;40.72
39363;BME280;25088;43.238;23.110;2023-02-19T03:34:32;96690.44;;;13.53;42.45
39363;BME280;25088;43.238;23.110;2023-02-19T03:37:15;96689.25;;;13.28;42.38
39363;BME280;25088;43.238;23.110;2023-02-19T03:39:43;96696.28;;;13.09;42.80
39363;BME280;25088;43.238;23.110;2023-02-19T03:47:37;96693.34;;;12.68;44.31
39363;BME280;25088;43.238;23.110;2023-02-19T03:50:14;96707.28;;;12.66;44.11
39363;BME280;25088;43.238;23.110;2023-02-19T03:53:05;96714.75;;;12.34;46.22
39363;BME280;25088;43.238;23.110;2023-02-19T03:58:34;96722.72;;;11.81;46.81
39363;BME280;25088;43.238;23.110;2023-02-19T04:01:09;96727.78;;;11.68;47.27
39363;BME280;25088;43.238;23.110;2023-02-19T04:03:45;96736.34;;;11.49;47.87
39363;BME280;25088;43.238;23.110;2023-02-19T04:06:16;96738.84;;;11.29;49.11
39363;BME280;25088;43.238;23.110;2023-02-19T04:08:47;96745.44;;;11.11;50.29
39363;BME280;25088;43.238;23.110;2023-02-19T04:11:15;96753.31;;;11.07;49.48
39363;BME280;25088;43.238;23.110;2023-02-19T04:14:01;96757.25;;;10.95;50.57
39363;BME280;25088;43.238;23.110;2023-02-19T04:16:29;96761.56;;;10.91;50.60
39363;BME280;25088;43.238;23.110;2023-02-19T04:19:02;96769.22;;;10.72;51.59
39363;BME280;25088;43.238;23.110;2023-02-19T04:21:31;96753.13;;;10.37;53.09
39363;BME280;25088;43.238;23.110;2023-02-19T04:24:05;96770.97;;;10.27;53.11
39363;BME280;25088;43.238;23.110;2023-02-19T04:26:33;96764.44;;;10.28;52.45
39363;BME280;25088;43.238;23.110;2023-02-19T04:29:00;96776.09;;;10.24;53.38
39363;BME280;25088;43.238;23.110;2023-02-19T04:31:26;96775.63;;;10.27;53.33
39363;BME280;25088;43.238;23.110;2023-02-19T04:33:54;96775.16;;;10.18;54.19
39363;BME280;25088;43.238;23.110;2023-02-19T04:36:19;96772.69;;;10.17;53.06
39363;BME280;25088;43.238;23.110;2023-02-19T04:38:45;96780.53;;;10.13;53.70
39363;BME280;25088;43.238;23.110;2023-02-19T04:41:10;96777.31;;;10.16;53.59
39363;BME280;25088;43.238;23.110;2023-02-19T04:43:36;96783.31;;;10.30;53.50
39363;BME280;25088;43.238;23.110;2023-02-19T04:46:01;96757.22;;;10.05;53.83
39363;BME280;25088;43.238;23.110;2023-02-19T04:48:27;96770.22;;;10.15;54.36
39363;BME280;25088;43.238;23.110;2023-02-19T04:50:53;96779.63;;;10.07;55.51
39363;BME280;25088;43.238;23.110;2023-02-19T04:53:18;96784.81;;;9.92;55.79
39363;BME280;25088;43.238;23.110;2023-02-19T04:55:44;96777.25;;;9.82;55.78
39363;BME280;25088;43.238;23.110;2023-02-19T04:58:09;96780.38;;;9.74;56.79
39363;BME280;25088;43.238;23.110;2023-02-19T05:00:35;96787.97;;;9.72;55.99
39363;BME280;25088;43.238;23.110;2023-02-19T05:03:00;96790.03;;;9.65;56.93
39363;BME280;25088;43.238;23.110;2023-02-19T05:05:26;96766.94;;;9.27;58.85
39363;BME280;25088;43.238;23.110;2023-02-19T05:07:52;96790.50;;;9.33;59.22
39363;BME280;25088;43.238;23.110;2023-02-19T05:10:17;96799.28;;;9.24;59.23
39363;BME280;25088;43.238;23.110;2023-02-19T05:12:43;96788.78;;;9.04;60.36
39363;BME280;25088;43.238;23.110;2023-02-19T05:15:08;96793.28;;;8.98;60.50
39363;BME280;25088;43.238;23.110;2023-02-19T05:17:34;96799.56;;;8.99;61.08
39363;BME280;25088;43.238;23.110;2023-02-19T05:19:59;96791.78;;;8.91;61.29
39363;BME280;25088;43.238;23.110;2023-02-19T05:22:26;96806.78;;;8.93;60.32
39363;BME280;25088;43.238;23.110;2023-02-19T05:24:52;96806.91;;;9.10;60.16
39363;BME280;25088;43.238;23.110;2023-02-19T05:27:17;96817.31;;;9.13;59.83
39363;BME280;25088;43.238;23.110;2023-02-19T05:29:43;96817.31;;;9.13;60.13
39363;BME280;25088;43.238;23.110;2023-02-19T05:32:08;96818.72;;;9.04;61.16
39363;BME280;25088;43.238;23.110;2023-02-19T05:34:34;96818.97;;;9.02;60.88
39363;BME280;25088;43.238;23.110;2023-02-19T05:36:59;96816.50;;;8.89;61.90
39363;BME280;25088;43.238;23.110;2023-02-19T05:39:25;96812.84;;;8.84;61.74
39363;BME280;25088;43.238;23.110;2023-02-19T05:41:50;96821.63;;;8.86;62.28
39363;BME280;25088;43.238;23.110;2023-02-19T05:44:16;96828.81;;;8.92;62.40
39363;BME280;25088;43.238;23.110;2023-02-19T05:46:41;96830.22;;;8.94;62.70
39363;BME280;25088;43.238;23.110;2023-02-19T05:49:07;96824.44;;;8.91;62.39
39363;BME280;25088;43.238;23.110;2023-02-19T05:51:32;96826.56;;;8.89;63.15
39363;BME280;25088;43.238;23.110;2023-02-19T05:53:58;96815.66;;;8.89;62.98
39363;BME280;25088;43.238;23.110;2023-02-19T05:56:26;96827.16;;;9.02;63.05
39363;BME280;25088;43.238;23.110;2023-02-19T05:58:53;96835.19;;;9.09;62.44
39363;BME280;25088;43.238;23.110;2023-02-19T06:01:20;96830.56;;;9.21;62.72
39363;BME280;25088;43.238;23.110;2023-02-19T06:03:47;96839.63;;;9.50;61.95
39363;BME280;25088;43.238;23.110;2023-02-19T06:06:14;96835.88;;;9.68;61.19
39363;BME280;25088;43.238;23.110;2023-02-19T06:08:41;96831.91;;;9.88;60.92
39363;BME280;25088;43.238;23.110;2023-02-19T06:11:06;96823.19;;;10.19;58.82
39363;BME280;25088;43.238;23.110;2023-02-19T06:13:32;96831.94;;;10.67;57.35
39363;BME280;25088;43.238;23.110;2023-02-19T06:15:57;96820.63;;;11.13;55.50
39363;BME280;25088;43.238;23.110;2023-02-19T06:18:23;96826.59;;;11.10;55.70
39363;BME280;25088;43.238;23.110;2023-02-19T06:20:48;96827.31;;;11.23;55.92
39363;BME280;25088;43.238;23.110;2023-02-19T06:23:14;96828.72;;;11.25;55.95
39363;BME280;25088;43.238;23.110;2023-02-19T06:25:40;96843.22;;;11.48;55.58
39363;BME280;25088;43.238;23.110;2023-02-19T06:28:06;96830.56;;;11.63;54.88
39363;BME280;25088;43.238;23.110;2023-02-19T06:30:31;96830.31;;;11.87;54.62
39363;BME280;25088;43.238;23.110;2023-02-19T06:32:56;96835.81;;;12.14;53.80
39363;BME280;25088;43.238;23.110;2023-02-19T06:35:22;96845.44;;;12.44;53.17
39363;BME280;25088;43.238;23.110;2023-02-19T06:37:48;96843.25;;;12.46;52.65
39363;BME280;25088;43.238;23.110;2023-02-19T06:40:14;96837.84;;;12.56;52.03
39363;BME280;25088;43.238;23.110;2023-02-19T06:42:40;96832.06;;;12.84;51.98
39363;BME280;25088;43.238;23.110;2023-02-19T06:45:06;96826.31;;;13.23;50.23
39363;BME280;25088;43.238;23.110;2023-02-19T06:47:32;96828.09;;;13.44;49.94
39363;BME280;25088;43.238;23.110;2023-02-19T06:49:58;96812.56;;;13.76;49.75
39363;BME280;25088;43.238;23.110;2023-02-19T06:52:26;96809.94;;;14.16;48.77
39363;BME280;25088;43.238;23.110;2023-02-19T06:54:52;96820.75;;;14.69;47.60
39363;BME280;25088;43.238;23.110;2023-02-19T06:57:17;96819.63;;;14.70;48.66
39363;BME280;25088;43.238;23.110;2023-02-19T06:59:44;96824.03;;;15.07;48.02
39363;BME280;25088;43.238;23.110;2023-02-19T07:02:10;96821.78;;;15.29;45.87
39363;BME280;25088;43.238;23.110;2023-02-19T07:04:36;96822.50;;;15.70;45.90
39363;BME280;25088;43.238;23.110;2023-02-19T07:07:02;96809.69;;;16.00;45.46
39363;BME280;25088;43.238;23.110;2023-02-19T07:09:27;96803.00;;;16.16;44.67
39363;BME280;25088;43.238;23.110;2023-02-19T07:11:53;96805.50;;;16.13;44.81
39363;BME280;25088;43.238;23.110;2023-02-19T07:14:18;96812.63;;;16.58;43.11
39363;BME280;25088;43.238;23.110;2023-02-19T07:16:46;96808.88;;;16.83;42.49
39363;BME280;25088;43.238;23.110;2023-02-19T07:19:12;96817.22;;;17.36;42.00
39363;BME280;25088;43.238;23.110;2023-02-19T07:21:39;96817.59;;;17.77;41.55
39363;BME280;25088;43.238;23.110;2023-02-19T07:24:07;96795.41;;;18.25;40.30
39363;BME280;25088;43.238;23.110;2023-02-19T07:26:33;96807.13;;;18.74;37.88
39363;BME280;25088;43.238;23.110;2023-02-19T07:28:59;96814.72;;;19.01;37.41
39363;BME280;25088;43.238;23.110;2023-02-19T07:31:25;96798.56;;;18.89;37.17
39363;BME280;25088;43.238;23.110;2023-02-19T07:33:50;96803.50;;;18.92;37.25
39363;BME280;25088;43.238;23.110;2023-02-19T07:36:18;96802.38;;;19.26;37.09
39363;BME280;25088;43.238;23.110;2023-02-19T07:38:44;96794.41;;;19.93;37.55
39363;BME280;25088;43.238;23.110;2023-02-19T07:41:09;96792.47;;;20.57;35.87
39363;BME280;25088;43.238;23.110;2023-02-19T07:43:36;96785.94;;;20.76;34.98
39363;BME280;25088;43.238;23.110;2023-02-19T07:46:07;96782.50;;;20.43;35.11
39363;BME280;25088;43.238;23.110;2023-02-19T07:48:34;96779.94;;;20.10;35.13
39363;BME280;25088;43.238;23.110;2023-02-19T07:51:01;96783.56;;;20.33;35.43
39363;BME280;25088;43.238;23.110;2023-02-19T07:53:27;96767.81;;;20.06;34.97
39363;BME280;25088;43.238;23.110;2023-02-19T07:55:58;96770.09;;;20.40;34.80
39363;BME280;25088;43.238;23.110;2023-02-19T07:58:24;96771.84;;;20.00;35.19
39363;BME280;25088;43.238;23.110;2023-02-19T08:00:49;96770.97;;;20.27;35.02
39363;BME280;25088;43.238;23.110;2023-02-19T08:03:15;96772.50;;;20.69;34.30
39363;BME280;25088;43.238;23.110;2023-02-19T08:05:41;96770.94;;;20.40;34.49
39363;BME280;25088;43.238;23.110;2023-02-19T08:08:09;96763.00;;;20.92;34.14
39363;BME280;25088;43.238;23.110;2023-02-19T08:10:35;96763.47;;;20.86;34.17
39363;BME280;25088;43.238;23.110;2023-02-19T08:13:20;96767.13;;;21.26;33.70
39363;BME280;25088;43.238;23.110;2023-02-19T08:15:54;96769.31;;;21.07;33.93
39363;BME280;25088;43.238;23.110;2023-02-19T08:18:22;96762.63;;;21.08;33.65
39363;BME280;25088;43.238;23.110;2023-02-19T08:20:48;96764.03;;;21.28;33.53
39363;BME280;25088;43.238;23.110;2023-02-19T08:23:14;96758.59;;;21.45;33.33
39363;BME280;25088;43.238;23.110;2023-02-19T08:25:40;96758.66;;;22.11;32.52
39363;BME280;25088;43.238;23.110;2023-02-19T08:28:07;96760.88;;;21.91;32.17
39363;BME280;25088;43.238;23.110;2023-02-19T08:30:33;96756.06;;;22.14;32.28
39363;BME280;25088;43.238;23.110;2023-02-19T08:32:59;96753.63;;;22.48;31.84
39363;BME280;25088;43.238;23.110;2023-02-19T08:35:26;96755.75;;;22.94;31.46
39363;BME280;25088;43.238;23.110;2023-02-19T08:37:56;96747.59;;;23.44;30.29
39363;BME280;25088;43.238;23.110;2023-02-19T08:40:22;96738.22;;;23.49;30.10
39363;BME280;25088;43.238;23.110;2023-02-19T08:42:47;96733.28;;;23.63;30.90
39363;BME280;25088;43.238;23.110;2023-02-19T08:45:13;96742.28;;;23.98;30.21
39363;BME280;25088;43.238;23.110;2023-02-19T08:47:39;96747.00;;;24.28;30.10
39363;BME280;25088;43.238;23.110;2023-02-19T08:50:05;96737.34;;;24.25;29.61
39363;BME280;25088;43.238;23.110;2023-02-19T08:52:32;96736.09;;;24.43;29.40
39363;BME280;25088;43.238;23.110;2023-02-19T08:54:58;96733.63;;;24.63;29.13
39363;BME280;25088;43.238;23.110;2023-02-19T08:57:23;96737.03;;;24.68;29.05
39363;BME280;25088;43.238;23.110;2023-02-19T08:59:49;96726.47;;;24.74;28.97
39363;BME280;25088;43.238;23.110;2023-02-19T09:02:15;96727.38;;;24.99;28.72
39363;BME280;25088;43.238;23.110;2023-02-19T09:04:40;96732.13;;;24.98;28.21
39363;BME280;25088;43.238;23.110;2023-02-19T09:07:06;96729.94;;;25.04;29.16
39363;BME280;25088;43.238;23.110;2023-02-19T09:09:35;96732.94;;;24.99;28.57
39363;BME280;25088;43.238;23.110;2023-02-19T09:12:03;96732.09;;;25.19;28.47
39363;BME280;25088;43.238;23.110;2023-02-19T09:14:32;96726.13;;;25.54;27.69
39363;BME280;25088;43.238;23.110;2023-02-19T09:16:58;96725.97;;;25.50;27.05
39363;BME280;25088;43.238;23.110;2023-02-19T09:19:24;96717.72;;;25.54;27.36
39363;BME280;25088;43.238;23.110;2023-02-19T09:21:50;96714.38;;;25.73;27.51
39363;BME280;25088;43.238;23.110;2023-02-19T09:24:16;96718.22;;;25.81;27.45
39363;BME280;25088;43.238;23.110;2023-02-19T09:26:41;96711.25;;;25.87;27.31
39363;BME280;25088;43.238;23.110;2023-02-19T09:29:07;96705.31;;;25.76;27.15
39363;BME280;25088;43.238;23.110;2023-02-19T09:31:32;96706.41;;;25.38;27.69
39363;BME280;25088;43.238;23.110;2023-02-19T09:33:59;96704.91;;;24.62;27.92
39363;BME280;25088;43.238;23.110;2023-02-19T09:36:25;96699.53;;;23.86;28.94
39363;BME280;25088;43.238;23.110;2023-02-19T09:38:51;96702.03;;;22.85;30.12
39363;BME280;25088;43.238;23.110;2023-02-19T09:41:31;96689.16;;;22.63;30.77
39363;BME280;25088;43.238;23.110;2023-02-19T09:43:59;96700.75;;;22.65;30.93
39363;BME280;25088;43.238;23.110;2023-02-19T09:46:49;96699.69;;;23.13;31.17
39363;BME280;25088;43.238;23.110;2023-02-19T09:49:19;96690.13;;;23.69;30.10
39363;BME280;25088;43.238;23.110;2023-02-19T09:52:11;96692.59;;;24.42;29.45
39363;BME280;25088;43.238;23.110;2023-02-19T09:54:38;96694.16;;;25.18;28.34
39363;BME280;25088;43.238;23.110;2023-02-19T09:57:04;96696.72;;;25.11;28.49
39363;BME280;25088;43.238;23.110;2023-02-19T09:59:44;96692.63;;;25.09;28.23
39363;BME280;25088;43.238;23.110;2023-02-19T10:04:40;96685.56;;;24.90;28.59
39363;BME280;25088;43.238;23.110;2023-02-19T10:07:20;96679.88;;;25.32;27.83
39363;BME280;25088;43.238;23.110;2023-02-19T10:10:04;96679.41;;;25.55;27.60
39363;BME280;25088;43.238;23.110;2023-02-19T10:12:44;96670.31;;;25.70;27.56
39363;BME280;25088;43.238;23.110;2023-02-19T10:15:18;96663.09;;;25.32;27.23
39363;BME280;25088;43.238;23.110;2023-02-19T10:17:46;96655.38;;;25.66;27.35
39363;BME280;25088;43.238;23.110;2023-02-19T10:20:17;96659.50;;;25.32;27.41
39363;BME280;25088;43.238;23.110;2023-02-19T10:22:43;96663.81;;;24.96;27.21
39363;BME280;25088;43.238;23.110;2023-02-19T10:25:14;96651.75;;;24.38;28.61
39363;BME280;25088;43.238;23.110;2023-02-19T10:27:40;96652.38;;;24.22;28.54
39363;BME280;25088;43.238;23.110;2023-02-19T10:30:21;96634.47;;;24.44;29.34
39363;BME280;25088;43.238;23.110;2023-02-19T10:33:08;96627.75;;;25.03;27.26
39363;BME280;25088;43.238;23.110;2023-02-19T10:35:36;96632.78;;;25.10;27.32
39363;BME280;25088;43.238;23.110;2023-02-19T10:38:04;96623.66;;;25.00;28.01
39363;BME280;25088;43.238;23.110;2023-02-19T10:40:33;96618.38;;;25.44;26.33
39363;BME280;25088;43.238;23.110;2023-02-19T10:43:02;96614.25;;;24.93;27.10
39363;BME280;25088;43.238;23.110;2023-02-19T10:47:53;96603.91;;;22.96;28.87
39363;BME280;25088;43.238;23.110;2023-02-19T10:50:33;96601.00;;;22.84;28.34
39363;BME280;25088;43.238;23.110;2023-02-19T10:53:03;96598.59;;;23.42;28.27
39363;BME280;25088;43.238;23.110;2023-02-19T10:55:34;96585.72;;;23.08;28.32
39363;BME280;25088;43.238;23.110;2023-02-19T10:58:22;96578.69;;;23.31;28.21
39363;BME280;25088;43.238;23.110;2023-02-19T11:01:21;96577.78;;;23.18;28.12
39363;BME280;25088;43.238;23.110;2023-02-19T11:03:51;96564.94;;;22.96;28.82
39363;BME280;25088;43.238;23.110;2023-02-19T11:06:20;96565.00;;;23.17;28.23
39363;BME280;25088;43.238;23.110;2023-02-19T11:08:49;96569.81;;;23.59;27.83
39363;BME280;25088;43.238;23.110;2023-02-19T11:11:31;96556.47;;;23.73;27.33
39363;BME280;25088;43.238;23.110;2023-02-19T11:14:00;96550.91;;;24.06;26.82
39363;BME280;25088;43.238;23.110;2023-02-19T11:16:43;96546.25;;;25.01;26.04
39363;BME280;25088;43.238;23.110;2023-02-19T11:19:43;96547.16;;;24.56;26.00
39363;BME280;25088;43.238;23.110;2023-02-19T11:28:04;96531.84;;;24.87;25.42
39363;BME280;25088;43.238;23.110;2023-02-19T11:30:33;96515.91;;;24.99;25.51
39363;BME280;25088;43.238;23.110;2023-02-19T11:38:52;96511.06;;;24.39;26.00
39363;BME280;25088;43.238;23.110;2023-02-19T11:44:35;96491.31;;;26.38;24.34
39363;BME280;25088;43.238;23.110;2023-02-19T11:49:52;96485.56;;;26.63;23.73
39363;BME280;25088;43.238;23.110;2023-02-19T11:58:06;96492.06;;;25.79;23.92
39363;BME280;25088;43.238;23.110;2023-02-19T12:00:44;96477.53;;;26.61;23.58
39363;BME280;25088;43.238;23.110;2023-02-19T12:06:02;96471.47;;;27.42;22.87
39363;BME280;25088;43.238;23.110;2023-02-19T12:11:51;96464.47;;;28.29;21.91
39363;BME280;25088;43.238;23.110;2023-02-19T12:20:11;96454.44;;;28.08;21.48
39363;BME280;25088;43.238;23.110;2023-02-19T12:26:06;96437.41;;;28.86;21.60
39363;BME280;25088;43.238;23.110;2023-02-19T12:32:12;96438.94;;;28.57;22.25
39363;BME280;25088;43.238;23.110;2023-02-19T12:34:23;96434.78;;;28.28;22.39
39363;BME280;25088;43.238;23.110;2023-02-19T12:48:39;96396.81;;;29.36;21.40
39363;BME280;25088;43.238;23.110;2023-02-19T12:51:18;96393.28;;;29.43;21.76
39363;BME280;25088;43.238;23.110;2023-02-19T12:56:19;96392.44;;;29.39;21.80
39363;BME280;25088;43.238;23.110;2023-02-19T12:58:52;96399.59;;;28.80;23.01
39363;BME280;25088;43.238;23.110;2023-02-19T13:01:27;96390.63;;;28.25;22.85
39363;BME280;25088;43.238;23.110;2023-02-19T13:04:16;96387.00;;;28.70;23.03
39363;BME280;25088;43.238;23.110;2023-02-19T13:06:52;96374.22;;;28.99;22.40
39363;BME280;25088;43.238;23.110;2023-02-19T13:12:11;96365.13;;;29.40;22.10
39363;BME280;25088;43.238;23.110;2023-02-19T13:14:48;96350.75;;;29.48;22.44
39363;BME280;25088;43.238;23.110;2023-02-19T13:19:52;96355.56;;;29.48;21.71
39363;BME280;25088;43.238;23.110;2023-02-19T13:25:10;96364.25;;;29.35;22.39
39363;BME280;25088;43.238;23.110;2023-02-19T13:27:53;96360.25;;;29.67;22.07
39363;BME280;25088;43.238;23.110;2023-02-19T13:30:32;96358.81;;;29.83;21.19
39363;BME280;25088;43.238;23.110;2023-02-19T14:01:07;96345.56;;;25.99;22.33
39363;BME280;25088;43.238;23.110;2023-02-19T14:09:57;96343.19;;;25.14;23.26
39363;BME280;25088;43.238;23.110;2023-02-19T14:39:22;96359.03;;;21.82;27.02
39363;BME280;25088;43.238;23.110;2023-02-19T14:41:56;96359.53;;;21.75;27.13
39363;BME280;25088;43.238;23.110;2023-02-19T14:47:45;96361.94;;;20.95;27.82
39363;BME280;25088;43.238;23.110;2023-02-19T15:03:48;96351.75;;;19.99;29.65
39363;BME280;25088;43.238;23.110;2023-02-19T15:06:14;96346.16;;;19.50;29.88
39363;BME280;25088;43.238;23.110;2023-02-19T15:08:48;96368.31;;;19.28;30.46
39363;BME280;25088;43.238;23.110;2023-02-19T15:11:24;96370.94;;;19.33;33.51
39363;BME280;25088;43.238;23.110;2023-02-19T15:13:57;96360.94;;;19.23;34.49
39363;BME280;25088;43.238;23.110;2023-02-19T15:16:27;96357.88;;;18.80;36.38
39363;BME280;25088;43.238;23.110;2023-02-19T15:18:54;96369.31;;;18.87;36.46
39363;BME280;25088;43.238;23.110;2023-02-19T15:21:27;96373.00;;;18.82;36.74
39363;BME280;25088;43.238;23.110;2023-02-19T15:23:59;96382.00;;;18.88;36.48
39363;BME280;25088;43.238;23.110;2023-02-19T15:26:36;96381.19;;;18.88;37.33
39363;BME280;25088;43.238;23.110;2023-02-19T15:29:11;96368.53;;;18.73;37.35
39363;BME280;25088;43.238;23.110;2023-02-19T15:31:53;96380.69;;;18.85;37.22
39363;BME280;25088;43.238;23.110;2023-02-19T15:34:20;96383.63;;;18.89;37.09
39363;BME280;25088;43.238;23.110;2023-02-19T15:36:47;96385.91;;;18.87;37.23
39363;BME280;25088;43.238;23.110;2023-02-19T15:39:22;96392.00;;;18.62;38.87
39363;BME280;25088;43.238;23.110;2023-02-19T15:41:51;96384.84;;;18.47;38.85
39363;BME280;25088;43.238;23.110;2023-02-19T15:44:29;96397.03;;;18.46;38.38
39363;BME280;25088;43.238;23.110;2023-02-19T15:46:59;96396.13;;;18.37;38.58
39363;BME280;25088;43.238;23.110;2023-02-19T15:49:38;96396.56;;;18.30;39.01
39363;BME280;25088;43.238;23.110;2023-02-19T15:52:09;96403.09;;;18.20;39.73